sensor_id;sensor_type;location;lat;lon;timestamp;pressure;altitude;pressure_sealevel;temperature;humidity
6387;BME280;3226;42.162;24.756;2023-01-28T00:01:47;98907.44;;;2.92;79.13
6387;BME280;3226;42.162;24.756;2023-01-28T00:04:15;98901.22;;;2.95;79.61
6387;BME280;3226;42.162;24.756;2023-01-28T00:06:44;98898.81;;;2.92;79.63
6387;BME280;3226;42.162;24.756;2023-01-28T00:09:12;98900.47;;;2.93;79.60
6387;BME280;3226;42.162;24.756;2023-01-28T00:11:40;98909.09;;;2.93;78.63
6387;BME280;3226;42.162;24.756;2023-01-28T00:14:09;98887.75;;;2.89;78.46
6387;BME280;3226;42.162;24.756;2023-01-28T00:16:39;98908.78;;;2.98;78.56
6387;BME280;3226;42.162;24.756;2023-01-28T00:19:07;98915.88;;;3.09;78.86
6387;BME280;3226;42.162;24.756;2023-01-28T00:21:35;98901.72;;;3.14;77.93
6387;BME280;3226;42.162;24.756;2023-01-28T00:24:04;98905.22;;;2.86;78.98
6387;BME280;3226;42.162;24.756;2023-01-28T00:26:32;98908.09;;;2.81;79.30
6387;BME280;3226;42.162;24.756;2023-01-28T00:29:00;98917.25;;;2.72;79.95
6387;BME280;3226;42.162;24.756;2023-01-28T00:31:29;98889.47;;;2.62;79.42
6387;BME280;3226;42.162;24.756;2023-01-28T00:33:58;98929.97;;;2.75;79.78
6387;BME280;3226;42.162;24.756;2023-01-28T00:36:26;98926.09;;;2.83;78.95
6387;BME280;3226;42.162;24.756;2023-01-28T00:38:56;98914.69;;;2.58;79.71
6387;BME280;3226;42.162;24.756;2023-01-28T00:41:25;98931.75;;;2.75;79.57
6387;BME280;3226;42.162;24.756;2023-01-28T00:43:54;98946.34;;;2.62;80.02
6387;BME280;3226;42.162;24.756;2023-01-28T00:46:22;98945.72;;;2.58;79.73
6387;BME280;3226;42.162;24.756;2023-01-28T00:48:52;98955.03;;;2.60;79.90
6387;BME280;3226;42.162;24.756;2023-01-28T00:51:22;98956.22;;;2.69;79.72
6387;BME280;3226;42.162;24.756;2023-01-28T00:53:50;98957.16;;;2.68;80.06
6387;BME280;3226;42.162;24.756;2023-01-28T00:56:18;98961.66;;;2.65;80.14
6387;BME280;3226;42.162;24.756;2023-01-28T00:58:47;98954.22;;;2.60;80.51
6387;BME280;3226;42.162;24.756;2023-01-28T01:01:17;98958.81;;;2.69;80.05
6387;BME280;3226;42.162;24.756;2023-01-28T01:03:46;98958.09;;;2.53;81.33
6387;BME280;3226;42.162;24.756;2023-01-28T01:06:20;98948.31;;;2.58;80.87
6387;BME280;3226;42.162;24.756;2023-01-28T01:08:49;98956.22;;;2.69;80.11
6387;BME280;3226;42.162;24.756;2023-01-28T01:11:17;98957.16;;;2.68;79.70
6387;BME280;3226;42.162;24.756;2023-01-28T01:13:49;98972.09;;;2.78;80.13
6387;BME280;3226;42.162;24.756;2023-01-28T01:16:17;98942.66;;;2.80;79.22
6387;BME280;3226;42.162;24.756;2023-01-28T01:18:46;98966.19;;;2.90;78.95
6387;BME280;3226;42.162;24.756;2023-01-28T01:21:16;98956.22;;;2.84;79.58
6387;BME280;3226;42.162;24.756;2023-01-28T01:23:45;98964.06;;;2.82;79.29
6387;BME280;3226;42.162;24.756;2023-01-28T01:26:14;98964.25;;;2.79;79.34
6387;BME280;3226;42.162;24.756;2023-01-28T01:28:42;98962.69;;;2.62;80.16
6387;BME280;3226;42.162;24.756;2023-01-28T01:31:12;98966.09;;;2.63;80.41
6387;BME280;3226;42.162;24.756;2023-01-28T01:33:41;98967.50;;;2.68;80.17
6387;BME280;3226;42.162;24.756;2023-01-28T01:36:10;98972.84;;;2.65;79.93
6387;BME280;3226;42.162;24.756;2023-01-28T01:38:39;98966.47;;;2.56;80.50
6387;BME280;3226;42.162;24.756;2023-01-28T01:41:16;98971.94;;;2.66;79.89
6387;BME280;3226;42.162;24.756;2023-01-28T01:43:50;98958.34;;;2.48;79.55
6387;BME280;3226;42.162;24.756;2023-01-28T01:46:22;98977.56;;;2.58;80.13
6387;BME280;3226;42.162;24.756;2023-01-28T01:48:53;98981.72;;;2.61;80.35
6387;BME280;3226;42.162;24.756;2023-01-28T01:51:25;98983.28;;;2.64;80.28
6387;BME280;3226;42.162;24.756;2023-01-28T01:53:57;98989.66;;;2.72;79.01
6387;BME280;3226;42.162;24.756;2023-01-28T01:56:31;99001.28;;;2.65;79.28
6387;BME280;3226;42.162;24.756;2023-01-28T01:59:00;98983.47;;;2.75;79.05
6387;BME280;3226;42.162;24.756;2023-01-28T02:01:29;98999.06;;;2.88;78.92
6387;BME280;3226;42.162;24.756;2023-01-28T02:04:03;98988.75;;;2.59;78.65
6387;BME280;3226;42.162;24.756;2023-01-28T02:06:34;98981.16;;;2.70;79.18
6387;BME280;3226;42.162;24.756;2023-01-28T02:09:06;99000.84;;;2.73;79.38
6387;BME280;3226;42.162;24.756;2023-01-28T02:11:36;99015.59;;;2.85;78.44
6387;BME280;3226;42.162;24.756;2023-01-28T02:14:05;99008.03;;;2.82;78.91
6387;BME280;3226;42.162;24.756;2023-01-28T02:16:33;99005.91;;;2.89;78.36
6387;BME280;3226;42.162;24.756;2023-01-28T02:19:01;99015.78;;;2.82;78.17
6387;BME280;3226;42.162;24.756;2023-01-28T02:21:50;99004.34;;;2.72;78.37
6387;BME280;3226;42.162;24.756;2023-01-28T02:27:36;99017.00;;;2.91;78.69
6387;BME280;3226;42.162;24.756;2023-01-28T02:30:11;99016.44;;;2.86;78.68
6387;BME280;3226;42.162;24.756;2023-01-28T02:32:45;99025.94;;;2.85;78.93
6387;BME280;3226;42.162;24.756;2023-01-28T02:35:23;99026.50;;;3.05;77.12
6387;BME280;3226;42.162;24.756;2023-01-28T02:37:58;99029.81;;;3.07;77.23
6387;BME280;3226;42.162;24.756;2023-01-28T02:40:28;99025.09;;;2.99;77.41
6387;BME280;3226;42.162;24.756;2023-01-28T02:42:58;99023.53;;;2.97;76.68
6387;BME280;3226;42.162;24.756;2023-01-28T02:45:31;99028.16;;;2.92;77.08
6387;BME280;3226;42.162;24.756;2023-01-28T02:48:13;99035.72;;;2.95;76.80
6387;BME280;3226;42.162;24.756;2023-01-28T02:50:47;99034.53;;;3.00;77.12
6387;BME280;3226;42.162;24.756;2023-01-28T02:53:21;99036.28;;;3.00;76.60
6387;BME280;3226;42.162;24.756;2023-01-28T02:56:17;99040.91;;;2.95;76.51
6387;BME280;3226;42.162;24.756;2023-01-28T02:58:52;99025.50;;;2.93;77.26
6387;BME280;3226;42.162;24.756;2023-01-28T03:01:26;99040.28;;;2.91;76.46
6387;BME280;3226;42.162;24.756;2023-01-28T03:03:58;99038.50;;;2.92;76.32
6387;BME280;3226;42.162;24.756;2023-01-28T03:06:30;99029.84;;;2.78;75.25
6387;BME280;3226;42.162;24.756;2023-01-28T03:09:03;99045.72;;;2.86;76.30
6387;BME280;3226;42.162;24.756;2023-01-28T03:11:54;99047.38;;;2.87;76.13
6387;BME280;3226;42.162;24.756;2023-01-28T03:14:42;99039.97;;;2.96;76.44
6387;BME280;3226;42.162;24.756;2023-01-28T03:17:35;99049.59;;;2.94;76.10
6387;BME280;3226;42.162;24.756;2023-01-28T03:20:24;99046.91;;;2.81;76.14
6387;BME280;3226;42.162;24.756;2023-01-28T03:23:13;99044.16;;;2.84;76.99
6387;BME280;3226;42.162;24.756;2023-01-28T03:26:00;99044.06;;;2.85;76.21
6387;BME280;3226;42.162;24.756;2023-01-28T03:28:48;99043.13;;;2.86;74.92
6387;BME280;3226;42.162;24.756;2023-01-28T03:31:35;99051.81;;;2.71;75.20
6387;BME280;3226;42.162;24.756;2023-01-28T03:34:22;99051.25;;;2.66;75.25
6387;BME280;3226;42.162;24.756;2023-01-28T03:37:08;99051.63;;;2.74;75.85
6387;BME280;3226;42.162;24.756;2023-01-28T03:39:40;99058.53;;;2.73;76.84
6387;BME280;3226;42.162;24.756;2023-01-28T03:42:10;99049.41;;;2.68;76.05
6387;BME280;3226;42.162;24.756;2023-01-28T03:44:39;99063.16;;;2.83;75.94
6387;BME280;3226;42.162;24.756;2023-01-28T03:47:18;99063.63;;;2.75;76.16
6387;BME280;3226;42.162;24.756;2023-01-28T03:49:49;99061.03;;;2.75;75.14
6387;BME280;3226;42.162;24.756;2023-01-28T03:52:19;99069.72;;;2.74;75.39
6387;BME280;3226;42.162;24.756;2023-01-28T03:54:48;99065.09;;;2.79;75.93
6387;BME280;3226;42.162;24.756;2023-01-28T03:57:21;99061.16;;;2.88;74.37
6387;BME280;3226;42.162;24.756;2023-01-28T03:59:50;99072.50;;;2.85;74.31
6387;BME280;3226;42.162;24.756;2023-01-28T04:02:19;99062.59;;;2.78;75.19
6387;BME280;3226;42.162;24.756;2023-01-28T04:04:49;99068.81;;;2.89;74.06
6387;BME280;3226;42.162;24.756;2023-01-28T04:07:17;99069.19;;;2.83;75.23
6387;BME280;3226;42.162;24.756;2023-01-28T04:09:45;99075.09;;;2.71;75.29
6387;BME280;3226;42.162;24.756;2023-01-28T04:12:13;99060.09;;;2.47;75.81
6387;BME280;3226;42.162;24.756;2023-01-28T04:14:41;99069.63;;;2.61;75.59
6387;BME280;3226;42.162;24.756;2023-01-28T04:17:09;99075.59;;;2.62;75.31
6387;BME280;3226;42.162;24.756;2023-01-28T04:19:37;99009.13;;;2.04;75.88
6387;BME280;3226;42.162;24.756;2023-01-28T04:22:09;99068.19;;;2.41;76.28
6387;BME280;3226;42.162;24.756;2023-01-28T04:24:37;99070.59;;;2.44;76.40
6387;BME280;3226;42.162;24.756;2023-01-28T04:27:05;99054.34;;;2.42;76.47
6387;BME280;3226;42.162;24.756;2023-01-28T04:29:34;99081.50;;;2.49;76.28
6387;BME280;3226;42.162;24.756;2023-01-28T04:32:02;99081.06;;;2.57;75.75
6387;BME280;3226;42.162;24.756;2023-01-28T04:34:30;99050.16;;;2.25;76.27
6387;BME280;3226;42.162;24.756;2023-01-28T04:36:58;99075.47;;;2.34;76.14
6387;BME280;3226;42.162;24.756;2023-01-28T04:39:27;99067.47;;;2.39;76.23
6387;BME280;3226;42.162;24.756;2023-01-28T04:41:55;99079.22;;;2.28;76.42
6387;BME280;3226;42.162;24.756;2023-01-28T04:44:23;99065.50;;;2.28;76.36
6387;BME280;3226;42.162;24.756;2023-01-28T04:46:51;99086.38;;;2.39;77.26
6387;BME280;3226;42.162;24.756;2023-01-28T04:49:19;99092.38;;;2.40;76.30
6387;BME280;3226;42.162;24.756;2023-01-28T04:51:47;99091.16;;;2.31;76.43
6387;BME280;3226;42.162;24.756;2023-01-28T04:54:15;99092.63;;;2.35;77.26
6387;BME280;3226;42.162;24.756;2023-01-28T04:56:45;99109.25;;;2.31;76.91
6387;BME280;3226;42.162;24.756;2023-01-28T04:59:12;99111.97;;;2.44;76.49
6387;BME280;3226;42.162;24.756;2023-01-28T05:01:40;99104.38;;;2.41;76.35
6387;BME280;3226;42.162;24.756;2023-01-28T05:04:09;99108.94;;;2.21;76.99
6387;BME280;3226;42.162;24.756;2023-01-28T05:06:37;99108.00;;;2.22;76.70
6387;BME280;3226;42.162;24.756;2023-01-28T05:09:05;99125.84;;;2.27;76.57
6387;BME280;3226;42.162;24.756;2023-01-28T05:11:33;99122.41;;;2.26;76.89
6387;BME280;3226;42.162;24.756;2023-01-28T05:14:06;99125.44;;;2.19;77.24
6387;BME280;3226;42.162;24.756;2023-01-28T05:16:34;99126.03;;;2.24;77.14
6387;BME280;3226;42.162;24.756;2023-01-28T05:19:02;99133.50;;;2.28;77.60
6387;BME280;3226;42.162;24.756;2023-01-28T05:21:30;99132.25;;;2.36;76.85
6387;BME280;3226;42.162;24.756;2023-01-28T05:23:58;99135.56;;;2.38;77.04
6387;BME280;3226;42.162;24.756;2023-01-28T05:26:26;99145.50;;;2.29;76.82
6387;BME280;3226;42.162;24.756;2023-01-28T05:28:54;99110.31;;;2.12;76.90
6387;BME280;3226;42.162;24.756;2023-01-28T05:31:23;99138.56;;;2.46;76.63
6387;BME280;3226;42.162;24.756;2023-01-28T05:33:51;99137.19;;;2.55;77.11
6387;BME280;3226;42.162;24.756;2023-01-28T05:36:19;99136.78;;;2.46;76.32
6387;BME280;3226;42.162;24.756;2023-01-28T05:38:47;99146.06;;;2.51;76.09
6387;BME280;3226;42.162;24.756;2023-01-28T05:41:15;99146.94;;;2.66;76.21
6387;BME280;3226;42.162;24.756;2023-01-28T05:43:43;99153.66;;;2.68;76.30
6387;BME280;3226;42.162;24.756;2023-01-28T05:46:11;99135.94;;;2.31;76.13
6387;BME280;3226;42.162;24.756;2023-01-28T05:48:41;99163.88;;;2.55;76.00
6387;BME280;3226;42.162;24.756;2023-01-28T05:51:09;99159.53;;;2.56;76.71
6387;BME280;3226;42.162;24.756;2023-01-28T05:53:37;99167.88;;;2.61;76.62
6387;BME280;3226;42.162;24.756;2023-01-28T05:56:05;99170.25;;;2.50;77.21
6387;BME280;3226;42.162;24.756;2023-01-28T05:58:33;99166.59;;;2.38;77.53
6387;BME280;3226;42.162;24.756;2023-01-28T06:01:01;99166.25;;;2.44;76.84
6387;BME280;3226;42.162;24.756;2023-01-28T06:03:30;99181.06;;;2.40;77.09
6387;BME280;3226;42.162;24.756;2023-01-28T06:05:59;99191.72;;;2.50;76.68
6387;BME280;3226;42.162;24.756;2023-01-28T06:08:27;99193.22;;;2.54;76.63
6387;BME280;3226;42.162;24.756;2023-01-28T06:10:55;99196.72;;;2.53;76.77
6387;BME280;3226;42.162;24.756;2023-01-28T06:13:23;99197.66;;;2.52;77.19
6387;BME280;3226;42.162;24.756;2023-01-28T06:15:51;99204.84;;;2.47;76.56
6387;BME280;3226;42.162;24.756;2023-01-28T06:18:19;99218.25;;;2.54;77.20
6387;BME280;3226;42.162;24.756;2023-01-28T06:20:48;99206.31;;;2.51;76.95
6387;BME280;3226;42.162;24.756;2023-01-28T06:23:17;99210.78;;;2.64;76.93
6387;BME280;3226;42.162;24.756;2023-01-28T06:25:45;99209.88;;;2.65;77.51
6387;BME280;3226;42.162;24.756;2023-01-28T06:28:13;99228.66;;;2.52;77.25
6387;BME280;3226;42.162;24.756;2023-01-28T06:30:42;99211.16;;;2.57;77.00
6387;BME280;3226;42.162;24.756;2023-01-28T06:33:10;99223.06;;;2.60;77.10
6387;BME280;3226;42.162;24.756;2023-01-28T06:35:38;99223.66;;;2.65;76.89
6387;BME280;3226;42.162;24.756;2023-01-28T06:38:06;99230.91;;;2.58;77.57
6387;BME280;3226;42.162;24.756;2023-01-28T06:40:35;99231.16;;;2.70;76.84
6387;BME280;3226;42.162;24.756;2023-01-28T06:43:04;99234.88;;;2.80;76.45
6387;BME280;3226;42.162;24.756;2023-01-28T06:45:32;99237.97;;;3.01;75.86
6387;BME280;3226;42.162;24.756;2023-01-28T06:48:00;99244.63;;;3.06;75.80
6387;BME280;3226;42.162;24.756;2023-01-28T06:50:29;99240.81;;;2.97;75.75
6387;BME280;3226;42.162;24.756;2023-01-28T06:52:57;99252.06;;;2.81;76.51
6387;BME280;3226;42.162;24.756;2023-01-28T06:55:25;99172.91;;;2.32;76.95
6387;BME280;3226;42.162;24.756;2023-01-28T06:57:55;99255.88;;;2.90;76.32
6387;BME280;3226;42.162;24.756;2023-01-28T07:00:23;99252.41;;;2.75;76.51
6387;BME280;3226;42.162;24.756;2023-01-28T07:02:54;99259.78;;;2.97;76.07
6387;BME280;3226;42.162;24.756;2023-01-28T07:05:23;99242.22;;;3.02;76.59
6387;BME280;3226;42.162;24.756;2023-01-28T07:07:51;99265.16;;;3.09;75.76
6387;BME280;3226;42.162;24.756;2023-01-28T07:10:19;99253.13;;;2.93;76.55
6387;BME280;3226;42.162;24.756;2023-01-28T07:12:47;99267.13;;;3.20;76.43
6387;BME280;3226;42.162;24.756;2023-01-28T07:15:17;99269.34;;;3.11;76.51
6387;BME280;3226;42.162;24.756;2023-01-28T07:17:45;99273.16;;;3.20;75.68
6387;BME280;3226;42.162;24.756;2023-01-28T07:20:13;99274.81;;;3.21;75.99
6387;BME280;3226;42.162;24.756;2023-01-28T07:22:43;99273.97;;;3.21;76.45
6387;BME280;3226;42.162;24.756;2023-01-28T07:25:13;99275.44;;;3.25;76.62
6387;BME280;3226;42.162;24.756;2023-01-28T07:27:46;99285.50;;;3.45;76.44
6387;BME280;3226;42.162;24.756;2023-01-28T07:30:17;99283.25;;;3.39;75.85
6387;BME280;3226;42.162;24.756;2023-01-28T07:32:46;99284.38;;;3.50;75.27
6387;BME280;3226;42.162;24.756;2023-01-28T07:35:19;99288.72;;;3.49;75.91
6387;BME280;3226;42.162;24.756;2023-01-28T07:37:50;99291.03;;;3.39;75.64
6387;BME280;3226;42.162;24.756;2023-01-28T07:40:19;99295.16;;;3.27;75.69
6387;BME280;3226;42.162;24.756;2023-01-28T07:42:47;99298.44;;;3.45;75.34
6387;BME280;3226;42.162;24.756;2023-01-28T07:45:17;99299.91;;;3.64;74.68
6387;BME280;3226;42.162;24.756;2023-01-28T07:47:52;99307.78;;;3.63;74.38
6387;BME280;3226;42.162;24.756;2023-01-28T07:50:20;99303.81;;;3.86;75.32
6387;BME280;3226;42.162;24.756;2023-01-28T07:52:48;99304.38;;;3.91;74.65
6387;BME280;3226;42.162;24.756;2023-01-28T07:55:16;99308.44;;;4.24;72.67
6387;BME280;3226;42.162;24.756;2023-01-28T07:57:48;99309.13;;;4.55;71.45
6387;BME280;3226;42.162;24.756;2023-01-28T08:00:19;99305.91;;;4.79;70.53
6387;BME280;3226;42.162;24.756;2023-01-28T08:02:48;99260.13;;;4.51;70.46
6387;BME280;3226;42.162;24.756;2023-01-28T08:05:17;99296.19;;;4.96;69.20
6387;BME280;3226;42.162;24.756;2023-01-28T08:07:47;99313.13;;;5.01;68.61
6387;BME280;3226;42.162;24.756;2023-01-28T08:10:16;99312.69;;;5.48;68.27
6387;BME280;3226;42.162;24.756;2023-01-28T08:12:52;99280.91;;;4.91;68.34
6387;BME280;3226;42.162;24.756;2023-01-28T08:15:22;99320.16;;;5.40;67.96
6387;BME280;3226;42.162;24.756;2023-01-28T08:17:50;99321.72;;;5.42;66.68
6387;BME280;3226;42.162;24.756;2023-01-28T08:20:20;99324.50;;;5.13;66.48
6387;BME280;3226;42.162;24.756;2023-01-28T08:22:48;99328.72;;;5.55;67.09
6387;BME280;3226;42.162;24.756;2023-01-28T08:25:16;99327.88;;;5.93;66.09
6387;BME280;3226;42.162;24.756;2023-01-28T08:27:44;99299.69;;;6.00;64.83
6387;BME280;3226;42.162;24.756;2023-01-28T08:30:13;99340.47;;;6.62;63.53
6387;BME280;3226;42.162;24.756;2023-01-28T08:32:43;99337.38;;;7.06;61.53
6387;BME280;3226;42.162;24.756;2023-01-28T08:35:11;99339.25;;;7.04;59.73
6387;BME280;3226;42.162;24.756;2023-01-28T08:37:39;99332.78;;;6.48;61.46
6387;BME280;3226;42.162;24.756;2023-01-28T08:40:08;99341.88;;;6.79;61.50
6387;BME280;3226;42.162;24.756;2023-01-28T08:42:36;99344.00;;;6.61;60.34
6387;BME280;3226;42.162;24.756;2023-01-28T08:45:05;99349.69;;;6.79;59.44
6387;BME280;3226;42.162;24.756;2023-01-28T08:47:34;99349.56;;;6.81;60.30
6387;BME280;3226;42.162;24.756;2023-01-28T08:50:04;99350.66;;;6.90;59.07
6387;BME280;3226;42.162;24.756;2023-01-28T08:52:32;99346.47;;;6.26;59.93
6387;BME280;3226;42.162;24.756;2023-01-28T08:55:00;99351.94;;;6.47;61.55
6387;BME280;3226;42.162;24.756;2023-01-28T08:57:28;99364.56;;;7.26;59.38
6387;BME280;3226;42.162;24.756;2023-01-28T08:59:56;99323.19;;;7.46;57.32
6387;BME280;3226;42.162;24.756;2023-01-28T09:02:24;99332.72;;;8.27;54.35
6387;BME280;3226;42.162;24.756;2023-01-28T09:04:58;99364.03;;;9.37;51.41
6387;BME280;3226;42.162;24.756;2023-01-28T09:07:27;99365.56;;;8.63;51.87
6387;BME280;3226;42.162;24.756;2023-01-28T09:09:55;99361.13;;;7.61;54.69
6387;BME280;3226;42.162;24.756;2023-01-28T09:12:23;99352.53;;;8.52;53.68
6387;BME280;3226;42.162;24.756;2023-01-28T09:14:51;99366.94;;;8.90;52.32
6387;BME280;3226;42.162;24.756;2023-01-28T09:17:20;99370.63;;;8.88;51.76
6387;BME280;3226;42.162;24.756;2023-01-28T09:19:48;99372.69;;;8.50;53.24
6387;BME280;3226;42.162;24.756;2023-01-28T09:22:16;99363.91;;;8.17;53.22
6387;BME280;3226;42.162;24.756;2023-01-28T09:24:46;99364.16;;;8.14;53.46
6387;BME280;3226;42.162;24.756;2023-01-28T09:27:14;99367.56;;;8.03;53.55
6387;BME280;3226;42.162;24.756;2023-01-28T09:29:42;99371.97;;;8.02;55.34
6387;BME280;3226;42.162;24.756;2023-01-28T09:32:10;99363.44;;;8.12;54.00
6387;BME280;3226;42.162;24.756;2023-01-28T09:34:38;99349.88;;;7.72;53.69
6387;BME280;3226;42.162;24.756;2023-01-28T09:37:06;99359.66;;;6.86;55.64
6387;BME280;3226;42.162;24.756;2023-01-28T09:39:34;99364.22;;;6.82;57.49
6387;BME280;3226;42.162;24.756;2023-01-28T09:42:18;99365.38;;;6.54;58.25
6387;BME280;3226;42.162;24.756;2023-01-28T09:44:58;99370.38;;;6.81;58.20
6387;BME280;3226;42.162;24.756;2023-01-28T09:47:32;99367.78;;;7.05;57.81
6387;BME280;3226;42.162;24.756;2023-01-28T09:50:04;99371.44;;;6.78;57.04
6387;BME280;3226;42.162;24.756;2023-01-28T09:52:35;99366.69;;;6.97;57.37
6387;BME280;3226;42.162;24.756;2023-01-28T09:55:06;99362.91;;;7.01;57.69
6387;BME280;3226;42.162;24.756;2023-01-28T09:57:44;99365.53;;;7.36;55.75
6387;BME280;3226;42.162;24.756;2023-01-28T10:00:15;99356.06;;;7.35;55.64
6387;BME280;3226;42.162;24.756;2023-01-28T10:02:54;99365.84;;;7.20;55.69
6387;BME280;3226;42.162;24.756;2023-01-28T10:05:30;99352.06;;;7.07;56.20
6387;BME280;3226;42.162;24.756;2023-01-28T10:08:10;99361.47;;;6.72;57.24
6387;BME280;3226;42.162;24.756;2023-01-28T10:10:46;99369.75;;;6.90;57.61
6387;BME280;3226;42.162;24.756;2023-01-28T10:13:29;99367.94;;;6.91;57.74
6387;BME280;3226;42.162;24.756;2023-01-28T10:16:09;99361.97;;;7.02;58.01
6387;BME280;3226;42.162;24.756;2023-01-28T10:18:43;99282.75;;;6.20;57.78
6387;BME280;3226;42.162;24.756;2023-01-28T10:21:17;99363.75;;;6.27;58.44
6387;BME280;3226;42.162;24.756;2023-01-28T10:23:54;99359.84;;;6.58;58.70
6387;BME280;3226;42.162;24.756;2023-01-28T10:26:26;99367.56;;;6.84;57.37
6387;BME280;3226;42.162;24.756;2023-01-28T10:29:02;99369.38;;;6.71;57.94
6387;BME280;3226;42.162;24.756;2023-01-28T10:31:35;99360.16;;;6.54;58.95
6387;BME280;3226;42.162;24.756;2023-01-28T10:34:06;99365.16;;;6.81;56.78
6387;BME280;3226;42.162;24.756;2023-01-28T10:36:34;99363.13;;;6.23;58.59
6387;BME280;3226;42.162;24.756;2023-01-28T10:39:02;99369.34;;;6.33;59.83
6387;BME280;3226;42.162;24.756;2023-01-28T10:41:31;99363.66;;;6.28;59.28
6387;BME280;3226;42.162;24.756;2023-01-28T10:44:01;99366.97;;;6.43;58.89
6387;BME280;3226;42.162;24.756;2023-01-28T10:46:32;99365.75;;;6.10;60.01
6387;BME280;3226;42.162;24.756;2023-01-28T10:49:10;99370.59;;;6.41;60.51
6387;BME280;3226;42.162;24.756;2023-01-28T10:51:41;99360.63;;;6.08;61.05
6387;BME280;3226;42.162;24.756;2023-01-28T10:54:21;99373.41;;;6.38;60.32
6387;BME280;3226;42.162;24.756;2023-01-28T10:56:52;99361.13;;;6.77;59.87
6387;BME280;3226;42.162;24.756;2023-01-28T10:59:25;99357.53;;;6.67;58.63
6387;BME280;3226;42.162;24.756;2023-01-28T11:01:56;99371.19;;;6.94;58.37
6387;BME280;3226;42.162;24.756;2023-01-28T11:04:26;99366.72;;;7.08;57.97
6387;BME280;3226;42.162;24.756;2023-01-28T11:06:58;99361.47;;;7.21;57.25
6387;BME280;3226;42.162;24.756;2023-01-28T11:09:29;99363.75;;;7.26;57.72
6387;BME280;3226;42.162;24.756;2023-01-28T11:11:58;99365.72;;;7.22;56.98
6387;BME280;3226;42.162;24.756;2023-01-28T11:14:27;99342.34;;;7.09;57.55
6387;BME280;3226;42.162;24.756;2023-01-28T11:16:57;99353.06;;;6.93;59.17
6387;BME280;3226;42.162;24.756;2023-01-28T11:19:30;99357.16;;;6.34;59.92
6387;BME280;3226;42.162;24.756;2023-01-28T11:22:01;99351.00;;;6.48;60.85
6387;BME280;3226;42.162;24.756;2023-01-28T11:24:31;99355.09;;;6.39;61.02
6387;BME280;3226;42.162;24.756;2023-01-28T11:27:10;99359.16;;;6.80;61.53
6387;BME280;3226;42.162;24.756;2023-01-28T11:29:43;99363.78;;;6.51;61.45
6387;BME280;3226;42.162;24.756;2023-01-28T11:32:18;99339.31;;;6.67;61.98
6387;BME280;3226;42.162;24.756;2023-01-28T11:34:49;99347.88;;;7.04;61.70
6387;BME280;3226;42.162;24.756;2023-01-28T11:37:19;99364.19;;;7.55;59.85
6387;BME280;3226;42.162;24.756;2023-01-28T11:39:48;99362.06;;;7.60;58.81
6387;BME280;3226;42.162;24.756;2023-01-28T11:42:18;99361.25;;;7.71;58.56
6387;BME280;3226;42.162;24.756;2023-01-28T11:44:48;99372.88;;;7.90;58.30
6387;BME280;3226;42.162;24.756;2023-01-28T11:47:26;99363.81;;;7.13;58.45
6387;BME280;3226;42.162;24.756;2023-01-28T11:50:24;99361.84;;;7.03;60.15
6387;BME280;3226;42.162;24.756;2023-01-28T11:53:12;99360.69;;;6.83;61.33
6387;BME280;3226;42.162;24.756;2023-01-28T11:55:51;99354.88;;;7.04;60.67
6387;BME280;3226;42.162;24.756;2023-01-28T11:58:29;99361.34;;;6.98;60.75
6387;BME280;3226;42.162;24.756;2023-01-28T12:01:04;99371.91;;;6.59;60.42
6387;BME280;3226;42.162;24.756;2023-01-28T12:03:43;99370.75;;;6.63;61.17
6387;BME280;3226;42.162;24.756;2023-01-28T12:06:50;99374.69;;;6.19;62.07
6387;BME280;3226;42.162;24.756;2023-01-28T12:09:26;99378.91;;;6.46;62.44
6387;BME280;3226;42.162;24.756;2023-01-28T12:12:10;99369.66;;;6.42;62.40
6387;BME280;3226;42.162;24.756;2023-01-28T12:17:45;99387.16;;;6.01;64.40
6387;BME280;3226;42.162;24.756;2023-01-28T12:20:21;99385.16;;;5.91;64.65
6387;BME280;3226;42.162;24.756;2023-01-28T12:23:05;99389.38;;;6.07;64.72
6387;BME280;3226;42.162;24.756;2023-01-28T12:25:46;99389.00;;;6.38;64.26
6387;BME280;3226;42.162;24.756;2023-01-28T12:28:31;99381.72;;;6.43;62.81
6387;BME280;3226;42.162;24.756;2023-01-28T12:31:26;99391.22;;;6.05;64.79
6387;BME280;3226;42.162;24.756;2023-01-28T12:34:11;99390.69;;;5.87;65.24
6387;BME280;3226;42.162;24.756;2023-01-28T12:36:51;99393.25;;;5.61;65.97
6387;BME280;3226;42.162;24.756;2023-01-28T12:39:33;99398.69;;;5.43;67.13
6387;BME280;3226;42.162;24.756;2023-01-28T12:42:09;99382.38;;;5.41;67.64
6387;BME280;3226;42.162;24.756;2023-01-28T12:44:41;99393.31;;;5.59;68.16
6387;BME280;3226;42.162;24.756;2023-01-28T12:47:15;99403.94;;;5.69;68.40
6387;BME280;3226;42.162;24.756;2023-01-28T12:49:48;99407.06;;;5.74;68.07
6387;BME280;3226;42.162;24.756;2023-01-28T12:52:21;99414.44;;;5.55;68.45
6387;BME280;3226;42.162;24.756;2023-01-28T12:54:55;99419.25;;;5.33;70.28
6387;BME280;3226;42.162;24.756;2023-01-28T12:57:26;99407.03;;;4.94;70.36
6387;BME280;3226;42.162;24.756;2023-01-28T13:00:14;99424.47;;;4.91;71.59
6387;BME280;3226;42.162;24.756;2023-01-28T13:02:51;99426.09;;;5.07;72.12
6387;BME280;3226;42.162;24.756;2023-01-28T13:05:30;99424.09;;;4.98;72.57
6387;BME280;3226;42.162;24.756;2023-01-28T13:08:02;99426.97;;;4.93;73.28
6387;BME280;3226;42.162;24.756;2023-01-28T13:10:35;99430.13;;;4.98;73.00
6387;BME280;3226;42.162;24.756;2023-01-28T13:13:05;99438.66;;;4.86;73.96
6387;BME280;3226;42.162;24.756;2023-01-28T13:15:39;99429.06;;;4.44;75.09
6387;BME280;3226;42.162;24.756;2023-01-28T13:18:31;99433.59;;;4.26;76.32
6387;BME280;3226;42.162;24.756;2023-01-28T13:21:01;99431.84;;;4.27;77.27
6387;BME280;3226;42.162;24.756;2023-01-28T13:23:39;99440.47;;;4.56;75.74
6387;BME280;3226;42.162;24.756;2023-01-28T13:26:10;99437.13;;;4.54;75.28
6387;BME280;3226;42.162;24.756;2023-01-28T13:28:38;99441.47;;;4.54;75.03
6387;BME280;3226;42.162;24.756;2023-01-28T13:31:08;99440.84;;;4.50;74.57
6387;BME280;3226;42.162;24.756;2023-01-28T13:33:40;99441.00;;;4.61;74.10
6387;BME280;3226;42.162;24.756;2023-01-28T13:36:24;99449.44;;;4.51;75.35
6387;BME280;3226;42.162;24.756;2023-01-28T13:39:01;99454.88;;;4.75;75.20
6387;BME280;3226;42.162;24.756;2023-01-28T13:41:38;99447.31;;;4.57;76.68
6387;BME280;3226;42.162;24.756;2023-01-28T13:44:17;99457.47;;;4.17;77.69
6387;BME280;3226;42.162;24.756;2023-01-28T13:46:46;99460.69;;;4.06;79.21
6387;BME280;3226;42.162;24.756;2023-01-28T13:49:16;99461.38;;;4.10;79.37
6387;BME280;3226;42.162;24.756;2023-01-28T13:51:56;99469.47;;;4.03;77.65
6387;BME280;3226;42.162;24.756;2023-01-28T13:54:27;99475.53;;;4.18;76.35